createdAt,value
2019-02-06T07:13:04.860Z,-4.60
2019-02-06T07:15:35.089Z,-4.40
2019-02-06T07:18:04.482Z,-4.10
2019-02-06T07:20:33.810Z,-3.70
2019-02-06T07:23:03.380Z,-3.40
2019-02-06T07:25:32.708Z,-3.10
2019-02-06T07:28:02.000Z,-2.90
2019-02-06T07:30:35.941Z,-2.70
2019-02-06T07:33:05.323Z,-2.40
2019-02-06T07:35:34.644Z,-2.30
2019-02-06T07:38:04.009Z,-2.10
2019-02-06T07:40:33.335Z,-1.80
2019-02-06T07:43:02.647Z,-1.80
2019-02-06T07:45:32.033Z,-1.60
2019-02-06T07:48:01.382Z,-1.40
2019-02-06T07:50:35.073Z,-1.30
2019-02-06T07:53:04.395Z,-1.30
2019-02-06T07:55:33.716Z,-1.10
2019-02-06T07:58:03.096Z,-1.00
2019-02-06T08:00:32.462Z,-0.90
2019-02-06T08:03:01.793Z,-0.80
2019-02-06T08:05:31.193Z,-0.80
2019-02-06T08:08:00.542Z,-0.70
2019-02-06T08:10:35.357Z,-0.60
2019-02-06T08:13:05.441Z,-0.40
2019-02-06T08:15:34.752Z,-0.30
2019-02-06T08:18:04.230Z,-0.30
2019-02-06T08:20:33.906Z,-0.20
2019-02-06T08:23:03.223Z,0.00
2019-02-06T08:25:32.511Z,0.20
2019-02-06T08:28:01.828Z,0.40
2019-02-06T08:30:37.912Z,0.40
2019-02-06T08:33:07.252Z,0.70
2019-02-06T08:35:36.635Z,0.80
2019-02-06T08:38:06.008Z,1.00
2019-02-06T08:40:35.334Z,1.20
2019-02-06T08:43:04.674Z,1.30
2019-02-06T08:45:34.058Z,1.40
2019-02-06T08:48:03.343Z,1.40
2019-02-06T08:50:32.836Z,1.50
2019-02-06T08:53:02.126Z,1.70
2019-02-06T08:55:34.594Z,1.80
2019-02-06T08:58:03.891Z,2.00
2019-02-06T09:00:39.039Z,2.10
2019-02-06T09:03:10.036Z,2.40
2019-02-06T09:05:39.435Z,2.60
2019-02-06T09:08:08.808Z,2.80
2019-02-06T09:10:38.107Z,3.00
2019-02-06T09:13:07.483Z,3.10
2019-02-06T09:15:36.859Z,3.30
2019-02-06T09:18:06.462Z,3.40
2019-02-06T09:20:35.754Z,3.60
2019-02-06T09:23:05.075Z,3.70
2019-02-06T09:25:34.378Z,3.70
2019-02-06T09:28:03.762Z,3.80
2019-02-06T09:30:35.498Z,3.70
2019-02-06T09:33:05.595Z,3.70
2019-02-06T09:35:34.942Z,3.70
2019-02-06T09:38:04.232Z,3.80
2019-02-06T09:40:33.521Z,4.00
2019-02-06T09:43:02.829Z,4.20
2019-02-06T09:45:32.143Z,4.40
2019-02-06T09:48:01.479Z,4.50
2019-02-06T09:50:33.734Z,4.60
2019-02-06T09:53:03.046Z,4.70
2019-02-06T09:55:32.433Z,4.70
2019-02-06T09:58:01.785Z,4.80
2019-02-06T10:00:33.919Z,5.00
2019-02-06T10:03:03.478Z,5.00
2019-02-06T10:05:32.761Z,5.10
2019-02-06T10:08:02.160Z,5.20
2019-02-06T10:10:31.468Z,5.30
2019-02-06T10:13:00.850Z,5.40
2019-02-06T10:15:33.274Z,5.50
2019-02-06T10:18:03.079Z,5.70
2019-02-06T10:20:39.196Z,5.60
2019-02-06T10:23:08.831Z,5.80
2019-02-06T10:25:38.316Z,5.90
2019-02-06T10:28:07.629Z,6.00
2019-02-06T10:30:46.508Z,6.10
2019-02-06T10:33:18.711Z,6.10
2019-02-06T10:35:46.918Z,6.30
2019-02-06T10:38:16.198Z,6.30
2019-02-06T10:40:45.519Z,6.40
2019-02-06T10:43:14.832Z,6.40
2019-02-06T10:45:44.150Z,6.40
2019-02-06T10:48:13.481Z,6.30
2019-02-06T10:50:46.838Z,6.40
2019-02-06T10:53:16.124Z,6.30
2019-02-06T10:55:45.458Z,6.20
2019-02-06T10:58:14.778Z,6.30
2019-02-06T11:00:53.776Z,6.30
2019-02-06T11:03:23.079Z,6.30
2019-02-06T11:05:52.366Z,6.20
2019-02-06T11:08:21.686Z,6.20
2019-02-06T11:10:51.038Z,6.20
2019-02-06T11:13:20.661Z,6.10
2019-02-06T11:15:50.031Z,6.20
2019-02-06T11:18:19.332Z,6.10
2019-02-06T11:20:49.022Z,6.10
2019-02-06T11:23:18.316Z,6.20
2019-02-06T11:25:47.598Z,6.20
2019-02-06T11:28:17.120Z,6.40
2019-02-06T11:30:46.421Z,6.50
2019-02-06T11:33:15.775Z,6.60
2019-02-06T11:35:45.085Z,6.50
2019-02-06T11:38:14.441Z,6.40
2019-02-06T11:40:43.726Z,6.30
2019-02-06T11:43:13.282Z,6.40
2019-02-06T11:45:42.639Z,6.50
2019-02-06T11:48:12.094Z,6.60
2019-02-06T11:50:42.465Z,6.60
2019-02-06T11:53:15.190Z,6.60
2019-02-06T11:55:44.542Z,6.60
2019-02-06T11:58:13.832Z,6.70
2019-02-06T12:00:42.919Z,6.70
2019-02-06T12:03:12.273Z,6.70
2019-02-06T12:05:41.588Z,6.80
2019-02-06T12:08:12.640Z,7.00
2019-02-06T12:10:42.246Z,7.00
2019-02-06T12:13:11.702Z,7.10
2019-02-06T12:15:40.990Z,7.20
2019-02-06T12:18:10.705Z,7.20
2019-02-06T12:20:40.050Z,7.20
2019-02-06T12:23:09.353Z,7.30
2019-02-06T12:25:38.669Z,7.30
2019-02-06T12:28:08.231Z,7.40
2019-02-06T12:30:40.837Z,7.50
2019-02-06T12:33:10.191Z,7.60
2019-02-06T12:35:39.502Z,7.60
2019-02-06T12:38:08.790Z,7.60
2019-02-06T12:40:38.108Z,7.70
2019-02-06T12:43:10.533Z,7.80
2019-02-06T12:45:39.243Z,7.70
2019-02-06T12:48:08.909Z,7.70
2019-02-06T12:50:38.222Z,7.70
2019-02-06T12:53:07.551Z,7.80
2019-02-06T12:55:41.717Z,7.90
2019-02-06T12:58:11.171Z,7.90
2019-02-06T13:00:43.809Z,7.80
2019-02-06T13:03:13.093Z,7.80
2019-02-06T13:05:42.373Z,7.80
2019-02-06T13:08:11.678Z,7.80
2019-02-06T13:10:41.080Z,7.70
2019-02-06T13:13:10.471Z,7.60
2019-02-06T13:15:39.747Z,7.70
2019-02-06T13:18:09.066Z,7.70
2019-02-06T13:20:38.357Z,7.60
2019-02-06T13:23:07.671Z,7.60
2019-02-06T13:25:36.953Z,7.70
2019-02-06T13:28:06.443Z,7.80
2019-02-06T13:30:39.108Z,7.80
2019-02-06T13:33:11.577Z,7.80
2019-02-06T13:35:39.997Z,7.80
2019-02-06T13:38:09.294Z,7.70
2019-02-06T13:40:45.848Z,7.40
2019-02-06T13:43:09.689Z,7.30
2019-02-06T13:45:48.216Z,7.30
2019-02-06T13:48:17.573Z,7.20
2019-02-06T13:50:46.894Z,7.20
2019-02-06T13:53:16.234Z,7.20
2019-02-06T13:55:45.635Z,7.20
2019-02-06T13:58:20.298Z,7.10
2019-02-06T14:00:46.104Z,7.10
2019-02-06T14:03:15.418Z,7.20
2019-02-06T14:05:46.936Z,7.20
2019-02-06T14:08:16.492Z,7.30
2019-02-06T14:10:59.890Z,7.30
2019-02-06T14:13:17.269Z,7.30
2019-02-06T14:15:48.695Z,7.20
2019-02-06T14:19:05.598Z,7.10
2019-02-06T14:21:34.903Z,7.00
2019-02-06T14:24:26.616Z,6.90
2019-02-06T14:27:00.789Z,6.80
2019-02-06T14:30:09.390Z,6.70
2019-02-06T14:33:00.239Z,6.60
2019-02-06T14:35:55.314Z,6.60
2019-02-06T14:38:44.068Z,6.50
2019-02-06T14:41:32.999Z,6.50
2019-02-06T14:44:26.619Z,6.40
2019-02-06T14:47:12.227Z,6.30
2019-02-06T14:50:04.155Z,6.30
2019-02-06T14:52:50.165Z,6.30
2019-02-06T14:55:52.834Z,6.30
2019-02-06T14:58:38.568Z,6.30
2019-02-06T15:01:32.005Z,6.40
2019-02-06T15:04:29.490Z,6.40
2019-02-06T15:07:14.941Z,6.30
2019-02-06T15:10:18.976Z,6.20
2019-02-06T15:13:07.975Z,6.20
2019-02-06T15:15:56.146Z,6.20
2019-02-06T15:18:57.316Z,6.20
2019-02-06T15:21:55.032Z,6.10
2019-02-06T15:24:34.593Z,6.00
2019-02-06T15:27:26.505Z,5.90
2019-02-06T15:30:03.760Z,5.90
2019-02-06T15:32:40.592Z,5.90
2019-02-06T15:35:17.502Z,5.80
2019-02-06T15:38:00.224Z,5.80
2019-02-06T15:40:56.540Z,5.80
2019-02-06T15:43:57.156Z,5.70
2019-02-06T15:46:33.880Z,5.70
2019-02-06T15:49:25.867Z,5.60
2019-02-06T15:52:25.198Z,5.50
2019-02-06T15:55:22.714Z,5.40
2019-02-06T15:58:13.091Z,5.20
2019-02-06T16:01:02.091Z,5.00
2019-02-06T16:03:37.926Z,4.80
2019-02-06T16:06:27.418Z,4.60
2019-02-06T16:09:20.764Z,4.50
2019-02-06T16:12:18.788Z,4.30
2019-02-06T16:14:58.566Z,4.20
2019-02-06T16:17:38.256Z,4.00
2019-02-06T16:20:37.734Z,3.70
2019-02-06T16:23:38.490Z,3.50
2019-02-06T16:26:48.626Z,3.30
2019-02-06T16:30:00.642Z,3.20
2019-02-06T16:33:04.427Z,3.10
2019-02-06T16:36:10.140Z,2.90
2019-02-06T16:39:02.158Z,2.70
2019-02-06T16:42:02.448Z,2.50
2019-02-06T16:44:42.478Z,2.40
2019-02-06T16:47:28.178Z,2.40
2019-02-06T16:50:08.095Z,2.30
2019-02-06T16:53:08.660Z,2.10
2019-02-06T16:56:09.654Z,2.10
2019-02-06T16:59:23.527Z,2.00
2019-02-06T17:02:19.918Z,1.90
2019-02-06T17:05:14.610Z,1.70
2019-02-06T17:08:07.847Z,1.60
2019-02-06T17:11:03.977Z,1.70
2019-02-06T17:14:08.772Z,1.60
2019-02-06T17:17:03.504Z,1.50
2019-02-06T17:19:46.529Z,1.40
2019-02-06T17:22:26.458Z,1.60
2019-02-06T17:25:24.403Z,1.70
2019-02-06T17:28:13.487Z,1.80
2019-02-06T17:31:19.451Z,1.80
2019-02-06T17:34:11.642Z,1.80
2019-02-06T17:36:51.516Z,1.70
2019-02-06T17:39:45.323Z,1.60
2019-02-06T17:42:52.695Z,1.60
2019-02-06T17:45:48.157Z,1.50
2019-02-06T17:48:30.937Z,1.40
2019-02-06T17:51:33.355Z,1.20
2019-02-06T17:54:13.369Z,1.00
2019-02-06T17:56:42.681Z,0.90
2019-02-06T17:59:11.971Z,0.60
2019-02-06T18:01:41.286Z,0.60
2019-02-06T18:04:10.650Z,0.50
2019-02-06T18:06:40.010Z,0.40
2019-02-06T18:09:12.950Z,0.50
2019-02-06T18:11:42.339Z,0.70
2019-02-06T18:14:11.658Z,0.90
2019-02-06T18:16:41.049Z,1.00
2019-02-06T18:19:10.337Z,1.10
2019-02-06T18:21:39.659Z,1.20
2019-02-06T18:24:09.435Z,1.30
2019-02-06T18:26:42.052Z,1.30
2019-02-06T18:29:11.375Z,1.30
2019-02-06T18:31:40.734Z,1.30
2019-02-06T18:34:10.263Z,1.30
2019-02-06T18:36:39.617Z,1.30
2019-02-06T18:39:10.834Z,1.40
2019-02-06T18:41:40.478Z,1.40
2019-02-06T18:44:09.930Z,1.30
2019-02-06T18:46:39.424Z,1.30
2019-02-06T18:49:08.818Z,1.20
2019-02-06T18:51:38.112Z,1.30
2019-02-06T18:54:07.635Z,1.30
2019-02-06T18:56:36.925Z,1.10
2019-02-06T18:59:06.831Z,0.70
2019-02-06T19:01:36.127Z,0.50
2019-02-06T19:04:06.196Z,0.50
2019-02-06T19:06:35.600Z,0.50
2019-02-06T19:09:07.990Z,0.30
2019-02-06T19:11:37.285Z,0.00
2019-02-06T19:14:06.849Z,-0.10
2019-02-06T19:16:36.446Z,-0.20
2019-02-06T19:19:05.817Z,-0.30
2019-02-06T19:21:35.185Z,-0.30
2019-02-06T19:24:04.684Z,-0.30
2019-02-06T19:26:33.982Z,-0.30
2019-02-06T19:29:03.384Z,-0.30
2019-02-06T19:31:32.823Z,-0.40
2019-02-06T19:34:02.665Z,-0.60
2019-02-06T19:36:31.994Z,-0.70
2019-02-06T19:39:01.392Z,-0.80
2019-02-06T19:41:30.692Z,-0.90
2019-02-06T19:44:00.847Z,-0.80
2019-02-06T19:46:30.186Z,-0.80
2019-02-06T19:48:59.548Z,-0.90
2019-02-06T19:51:29.146Z,-1.00
2019-02-06T19:53:58.446Z,-0.90
2019-02-06T19:56:27.780Z,-0.90
2019-02-06T19:58:57.077Z,-0.90
2019-02-06T20:01:26.404Z,-0.80
2019-02-06T20:03:55.700Z,-0.70
2019-02-06T20:06:30.817Z,-0.50
2019-02-06T20:09:00.252Z,-0.40
2019-02-06T20:11:29.652Z,-0.20
2019-02-06T20:13:58.968Z,0.00
2019-02-06T20:16:28.260Z,0.00
2019-02-06T20:18:57.588Z,0.00
2019-02-06T20:21:26.957Z,-0.20
2019-02-06T20:23:56.282Z,-0.40
2019-02-06T20:26:25.577Z,-0.50
2019-02-06T20:28:54.978Z,-0.70
2019-02-06T20:31:24.350Z,-0.80
2019-02-06T20:33:53.678Z,-1.00
2019-02-06T20:36:23.047Z,-1.10
2019-02-06T20:38:52.371Z,-1.20
2019-02-06T20:41:22.148Z,-1.20
2019-02-06T20:43:51.473Z,-1.30
2019-02-06T20:46:20.800Z,-1.40
2019-02-06T20:48:50.098Z,-1.60
2019-02-06T20:51:19.600Z,-1.60
2019-02-06T20:53:48.959Z,-1.70
2019-02-06T20:56:18.285Z,-1.70
2019-02-06T20:58:48.063Z,-1.70
2019-02-06T21:01:17.382Z,-1.70
2019-02-06T21:03:46.705Z,-1.60
2019-02-06T21:06:16.075Z,-1.60
2019-02-06T21:08:45.401Z,-1.70
2019-02-06T21:11:14.868Z,-1.90
2019-02-06T21:13:44.175Z,-1.90
2019-02-06T21:16:13.495Z,-1.90
2019-02-06T21:18:42.860Z,-1.90
2019-02-06T21:21:12.182Z,-1.90
2019-02-06T21:23:41.485Z,-1.90
2019-02-06T21:26:10.809Z,-1.80
2019-02-06T21:28:40.246Z,-1.90
2019-02-06T21:31:09.676Z,-1.90
2019-02-06T21:33:38.977Z,-2.00
2019-02-06T21:36:08.311Z,-1.90
2019-02-06T21:38:37.610Z,-1.90
2019-02-06T21:41:06.980Z,-1.90
2019-02-06T21:43:43.880Z,-2.00
2019-02-06T21:46:07.473Z,-2.00
2019-02-06T21:48:36.940Z,-2.00
2019-02-06T21:51:06.306Z,-2.00
2019-02-06T21:53:35.635Z,-1.90
2019-02-06T21:56:05.000Z,-2.00
2019-02-06T21:58:34.457Z,-2.00
2019-02-06T22:01:03.829Z,-2.10
2019-02-06T22:03:33.225Z,-2.30
2019-02-06T22:06:02.526Z,-2.40
2019-02-06T22:08:31.824Z,-2.60
2019-02-06T22:11:01.151Z,-2.70
2019-02-06T22:13:30.453Z,-2.80
2019-02-06T22:15:59.846Z,-2.70
2019-02-06T22:18:29.174Z,-2.60
2019-02-06T22:20:58.844Z,-2.50
2019-02-06T22:23:28.172Z,-2.60
2019-02-06T22:25:57.499Z,-2.70
2019-02-06T22:28:26.868Z,-2.60
2019-02-06T22:30:56.260Z,-2.50
2019-02-06T22:33:25.652Z,-2.40
2019-02-06T22:35:54.980Z,-2.50
2019-02-06T22:38:24.374Z,-2.50
2019-02-06T22:40:53.665Z,-2.60
2019-02-06T22:43:23.131Z,-2.60
2019-02-06T22:45:52.457Z,-2.60
2019-02-06T22:48:21.757Z,-2.50
2019-02-06T22:50:51.156Z,-2.50
2019-02-06T22:53:20.536Z,-2.60
2019-02-06T22:55:49.908Z,-2.70
2019-02-06T22:58:19.229Z,-2.70
2019-02-06T23:00:55.074Z,-2.70
2019-02-06T23:03:29.256Z,-2.60
2019-02-06T23:05:58.633Z,-2.60
2019-02-06T23:08:27.962Z,-2.60
2019-02-06T23:10:57.668Z,-2.60
2019-02-06T23:13:26.967Z,-2.70
2019-02-06T23:15:56.294Z,-2.70
2019-02-06T23:18:25.690Z,-2.80
2019-02-06T23:20:55.057Z,-3.00
2019-02-06T23:23:24.500Z,-3.00
2019-02-06T23:25:54.173Z,-3.00
2019-02-06T23:28:23.498Z,-2.90
2019-02-06T23:30:52.869Z,-2.90
2019-02-06T23:33:22.203Z,-3.10
2019-02-06T23:35:51.505Z,-3.20
2019-02-06T23:38:20.831Z,-3.20
2019-02-06T23:40:50.505Z,-3.20
2019-02-06T23:43:19.877Z,-3.20
2019-02-06T23:45:49.204Z,-3.20
2019-02-06T23:48:18.568Z,-3.10
2019-02-06T23:50:47.865Z,-3.00
2019-02-06T23:53:17.258Z,-2.90
2019-02-06T23:55:46.909Z,-2.90
2019-02-06T23:58:16.233Z,-3.00
